sensor_id;sensor_type;location;lat;lon;timestamp;temperature;humidity
8408;DHT22;4241;48.452;9.216;2022-07-22T00:01:35;18.10;99.90
8408;DHT22;4241;48.452;9.216;2022-07-22T00:04:02;18.00;99.90
8408;DHT22;4241;48.452;9.216;2022-07-22T00:06:29;17.90;99.90
8408;DHT22;4241;48.452;9.216;2022-07-22T00:08:56;17.90;99.90
8408;DHT22;4241;48.452;9.216;2022-07-22T00:11:23;17.90;99.90
8408;DHT22;4241;48.452;9.216;2022-07-22T00:13:51;18.00;99.90
8408;DHT22;4241;48.452;9.216;2022-07-22T00:16:18;18.00;99.90
8408;DHT22;4241;48.452;9.216;2022-07-22T00:18:45;18.00;99.90
8408;DHT22;4241;48.452;9.216;2022-07-22T00:21:12;18.00;99.90
8408;DHT22;4241;48.452;9.216;2022-07-22T00:23:39;18.10;99.90
8408;DHT22;4241;48.452;9.216;2022-07-22T00:26:05;18.00;99.90
8408;DHT22;4241;48.452;9.216;2022-07-22T00:28:32;18.00;99.90
8408;DHT22;4241;48.452;9.216;2022-07-22T00:31:00;17.90;99.90
8408;DHT22;4241;48.452;9.216;2022-07-22T00:33:27;17.60;99.90
8408;DHT22;4241;48.452;9.216;2022-07-22T00:35:54;17.70;99.90
8408;DHT22;4241;48.452;9.216;2022-07-22T00:38:21;17.60;99.90
8408;DHT22;4241;48.452;9.216;2022-07-22T00:40:48;17.50;99.90
8408;DHT22;4241;48.452;9.216;2022-07-22T00:43:14;17.80;99.90
8408;DHT22;4241;48.452;9.216;2022-07-22T00:45:41;18.00;99.90
8408;DHT22;4241;48.452;9.216;2022-07-22T00:48:09;18.30;99.90
8408;DHT22;4241;48.452;9.216;2022-07-22T00:50:36;18.00;99.90
8408;DHT22;4241;48.452;9.216;2022-07-22T00:53:03;17.90;99.90
8408;DHT22;4241;48.452;9.216;2022-07-22T00:55:30;17.80;99.90
8408;DHT22;4241;48.452;9.216;2022-07-22T00:57:59;17.60;99.90
8408;DHT22;4241;48.452;9.216;2022-07-22T01:00:26;17.40;99.90
8408;DHT22;4241;48.452;9.216;2022-07-22T01:02:53;17.30;99.90
8408;DHT22;4241;48.452;9.216;2022-07-22T01:05:21;17.20;99.90
8408;DHT22;4241;48.452;9.216;2022-07-22T01:07:48;17.20;99.90
8408;DHT22;4241;48.452;9.216;2022-07-22T01:10:15;17.30;99.90
8408;DHT22;4241;48.452;9.216;2022-07-22T01:12:42;17.30;99.90
8408;DHT22;4241;48.452;9.216;2022-07-22T01:15:09;17.40;99.90
8408;DHT22;4241;48.452;9.216;2022-07-22T01:17:36;17.50;99.90
8408;DHT22;4241;48.452;9.216;2022-07-22T01:20:05;17.60;99.90
8408;DHT22;4241;48.452;9.216;2022-07-22T01:22:33;17.60;99.90
8408;DHT22;4241;48.452;9.216;2022-07-22T01:24:59;17.60;99.90
8408;DHT22;4241;48.452;9.216;2022-07-22T01:27:26;17.80;99.90
8408;DHT22;4241;48.452;9.216;2022-07-22T01:29:55;17.80;99.90
8408;DHT22;4241;48.452;9.216;2022-07-22T01:32:21;17.60;99.90
8408;DHT22;4241;48.452;9.216;2022-07-22T01:34:48;17.60;99.90
8408;DHT22;4241;48.452;9.216;2022-07-22T01:37:17;17.60;99.90
8408;DHT22;4241;48.452;9.216;2022-07-22T01:39:43;17.50;99.90
8408;DHT22;4241;48.452;9.216;2022-07-22T01:42:10;17.50;99.90
8408;DHT22;4241;48.452;9.216;2022-07-22T01:44:37;17.30;99.90
8408;DHT22;4241;48.452;9.216;2022-07-22T01:47:04;17.40;99.90
8408;DHT22;4241;48.452;9.216;2022-07-22T01:49:31;17.20;99.90
8408;DHT22;4241;48.452;9.216;2022-07-22T01:51:58;17.20;99.90
8408;DHT22;4241;48.452;9.216;2022-07-22T01:54:27;17.00;99.90
8408;DHT22;4241;48.452;9.216;2022-07-22T01:56:54;17.00;99.90
8408;DHT22;4241;48.452;9.216;2022-07-22T01:59:21;16.90;99.90
8408;DHT22;4241;48.452;9.216;2022-07-22T02:01:47;17.00;99.90
8408;DHT22;4241;48.452;9.216;2022-07-22T02:04:14;17.10;99.90
8408;DHT22;4241;48.452;9.216;2022-07-22T02:06:41;17.20;99.90
8408;DHT22;4241;48.452;9.216;2022-07-22T02:09:08;17.10;99.90
8408;DHT22;4241;48.452;9.216;2022-07-22T02:11:36;17.10;99.90
8408;DHT22;4241;48.452;9.216;2022-07-22T02:14:03;16.90;99.90
8408;DHT22;4241;48.452;9.216;2022-07-22T02:16:30;16.80;99.90
8408;DHT22;4241;48.452;9.216;2022-07-22T02:18:57;16.70;99.90
8408;DHT22;4241;48.452;9.216;2022-07-22T02:21:24;17.00;99.90
8408;DHT22;4241;48.452;9.216;2022-07-22T02:23:50;17.00;99.90
8408;DHT22;4241;48.452;9.216;2022-07-22T02:26:17;17.20;99.90
8408;DHT22;4241;48.452;9.216;2022-07-22T02:28:46;17.50;99.90
8408;DHT22;4241;48.452;9.216;2022-07-22T02:31:13;17.30;99.90
8408;DHT22;4241;48.452;9.216;2022-07-22T02:33:40;17.20;99.90
8408;DHT22;4241;48.452;9.216;2022-07-22T02:36:07;17.20;99.90
8408;DHT22;4241;48.452;9.216;2022-07-22T02:38:34;17.20;99.90
8408;DHT22;4241;48.452;9.216;2022-07-22T02:41:01;17.20;99.90
8408;DHT22;4241;48.452;9.216;2022-07-22T02:43:28;17.10;99.90
8408;DHT22;4241;48.452;9.216;2022-07-22T02:45:56;17.10;99.90
8408;DHT22;4241;48.452;9.216;2022-07-22T02:48:23;17.00;99.90
8408;DHT22;4241;48.452;9.216;2022-07-22T02:50:49;17.00;99.90
8408;DHT22;4241;48.452;9.216;2022-07-22T02:53:16;17.20;99.90
8408;DHT22;4241;48.452;9.216;2022-07-22T02:55:43;17.30;99.90
8408;DHT22;4241;48.452;9.216;2022-07-22T02:58:10;17.40;99.90
8408;DHT22;4241;48.452;9.216;2022-07-22T03:00:37;17.50;99.90
8408;DHT22;4241;48.452;9.216;2022-07-22T03:03:05;17.40;99.90
8408;DHT22;4241;48.452;9.216;2022-07-22T03:05:32;17.40;99.90
8408;DHT22;4241;48.452;9.216;2022-07-22T03:07:59;16.90;99.90
8408;DHT22;4241;48.452;9.216;2022-07-22T03:10:26;16.70;99.90
8408;DHT22;4241;48.452;9.216;2022-07-22T03:12:53;16.40;99.90
8408;DHT22;4241;48.452;9.216;2022-07-22T03:15:20;16.50;99.90
8408;DHT22;4241;48.452;9.216;2022-07-22T03:17:47;16.30;99.90
8408;DHT22;4241;48.452;9.216;2022-07-22T03:20:15;16.20;99.90
8408;DHT22;4241;48.452;9.216;2022-07-22T03:22:41;16.00;99.90
8408;DHT22;4241;48.452;9.216;2022-07-22T03:25:08;16.00;99.90
8408;DHT22;4241;48.452;9.216;2022-07-22T03:27:36;16.10;99.90
8408;DHT22;4241;48.452;9.216;2022-07-22T03:30:04;16.10;99.90
8408;DHT22;4241;48.452;9.216;2022-07-22T03:32:31;16.00;99.90
8408;DHT22;4241;48.452;9.216;2022-07-22T03:34:58;16.00;99.90
8408;DHT22;4241;48.452;9.216;2022-07-22T03:37:26;16.00;99.90
8408;DHT22;4241;48.452;9.216;2022-07-22T03:39:53;16.00;99.90
8408;DHT22;4241;48.452;9.216;2022-07-22T03:42:19;16.10;99.90
8408;DHT22;4241;48.452;9.216;2022-07-22T03:44:46;16.10;99.90
8408;DHT22;4241;48.452;9.216;2022-07-22T03:47:17;16.10;99.90
8408;DHT22;4241;48.452;9.216;2022-07-22T03:49:44;16.00;99.90
8408;DHT22;4241;48.452;9.216;2022-07-22T03:52:11;16.00;99.90
8408;DHT22;4241;48.452;9.216;2022-07-22T03:54:39;16.40;99.90
8408;DHT22;4241;48.452;9.216;2022-07-22T03:57:06;16.50;99.90
8408;DHT22;4241;48.452;9.216;2022-07-22T03:59:33;16.40;99.90
8408;DHT22;4241;48.452;9.216;2022-07-22T04:02:00;16.10;99.90
8408;DHT22;4241;48.452;9.216;2022-07-22T04:04:27;16.00;99.90
8408;DHT22;4241;48.452;9.216;2022-07-22T04:06:54;16.00;99.90
8408;DHT22;4241;48.452;9.216;2022-07-22T04:09:21;16.20;99.90
8408;DHT22;4241;48.452;9.216;2022-07-22T04:11:49;16.30;99.90
8408;DHT22;4241;48.452;9.216;2022-07-22T04:14:17;16.20;99.90
8408;DHT22;4241;48.452;9.216;2022-07-22T04:16:44;16.20;99.90
8408;DHT22;4241;48.452;9.216;2022-07-22T04:19:11;16.00;99.90
8408;DHT22;4241;48.452;9.216;2022-07-22T04:21:38;15.90;99.90
8408;DHT22;4241;48.452;9.216;2022-07-22T04:24:06;16.10;99.90
8408;DHT22;4241;48.452;9.216;2022-07-22T04:26:33;16.20;99.90
8408;DHT22;4241;48.452;9.216;2022-07-22T04:29:03;16.20;99.90
8408;DHT22;4241;48.452;9.216;2022-07-22T04:31:30;16.10;99.90
8408;DHT22;4241;48.452;9.216;2022-07-22T04:33:57;15.90;99.90
8408;DHT22;4241;48.452;9.216;2022-07-22T04:36:24;16.10;99.90
8408;DHT22;4241;48.452;9.216;2022-07-22T04:38:51;16.10;99.90
8408;DHT22;4241;48.452;9.216;2022-07-22T04:41:18;16.10;99.90
8408;DHT22;4241;48.452;9.216;2022-07-22T04:43:45;16.20;99.90
8408;DHT22;4241;48.452;9.216;2022-07-22T04:46:13;16.40;99.90
8408;DHT22;4241;48.452;9.216;2022-07-22T04:48:40;16.30;99.90
8408;DHT22;4241;48.452;9.216;2022-07-22T04:51:07;16.30;99.90
8408;DHT22;4241;48.452;9.216;2022-07-22T04:53:34;16.40;99.90
8408;DHT22;4241;48.452;9.216;2022-07-22T04:56:00;16.40;99.90
8408;DHT22;4241;48.452;9.216;2022-07-22T04:58:27;16.30;99.90
8408;DHT22;4241;48.452;9.216;2022-07-22T05:00:54;16.20;99.90
8408;DHT22;4241;48.452;9.216;2022-07-22T05:03:22;16.10;99.90
8408;DHT22;4241;48.452;9.216;2022-07-22T05:05:51;16.10;99.90
8408;DHT22;4241;48.452;9.216;2022-07-22T05:08:18;16.20;99.90
8408;DHT22;4241;48.452;9.216;2022-07-22T05:10:44;16.30;99.90
8408;DHT22;4241;48.452;9.216;2022-07-22T05:13:12;16.40;99.90
8408;DHT22;4241;48.452;9.216;2022-07-22T05:15:39;16.50;99.90
8408;DHT22;4241;48.452;9.216;2022-07-22T05:18:06;16.50;99.90
8408;DHT22;4241;48.452;9.216;2022-07-22T05:20:34;16.60;99.90
8408;DHT22;4241;48.452;9.216;2022-07-22T05:23:02;16.70;99.90
8408;DHT22;4241;48.452;9.216;2022-07-22T05:25:29;17.50;99.90
8408;DHT22;4241;48.452;9.216;2022-07-22T05:27:56;16.70;99.90
8408;DHT22;4241;48.452;9.216;2022-07-22T05:30:23;16.70;99.90
8408;DHT22;4241;48.452;9.216;2022-07-22T05:32:50;16.80;99.90
8408;DHT22;4241;48.452;9.216;2022-07-22T05:35:17;16.90;99.90
8408;DHT22;4241;48.452;9.216;2022-07-22T05:37:45;17.00;99.90
8408;DHT22;4241;48.452;9.216;2022-07-22T05:40:12;17.10;99.90
8408;DHT22;4241;48.452;9.216;2022-07-22T05:42:39;17.10;99.90
8408;DHT22;4241;48.452;9.216;2022-07-22T05:45:06;17.30;99.90
8408;DHT22;4241;48.452;9.216;2022-07-22T05:47:33;17.50;99.90
8408;DHT22;4241;48.452;9.216;2022-07-22T05:50:00;17.50;99.90
8408;DHT22;4241;48.452;9.216;2022-07-22T05:52:27;17.60;99.90
8408;DHT22;4241;48.452;9.216;2022-07-22T05:54:55;17.70;99.90
8408;DHT22;4241;48.452;9.216;2022-07-22T05:57:22;17.80;99.90
8408;DHT22;4241;48.452;9.216;2022-07-22T05:59:49;17.80;99.90
8408;DHT22;4241;48.452;9.216;2022-07-22T06:02:16;18.00;99.90
8408;DHT22;4241;48.452;9.216;2022-07-22T06:04:42;18.10;99.90
8408;DHT22;4241;48.452;9.216;2022-07-22T06:07:12;18.10;99.90
8408;DHT22;4241;48.452;9.216;2022-07-22T06:09:39;18.20;99.90
8408;DHT22;4241;48.452;9.216;2022-07-22T06:12:07;18.30;99.90
8408;DHT22;4241;48.452;9.216;2022-07-22T06:14:34;18.40;99.90
8408;DHT22;4241;48.452;9.216;2022-07-22T06:17:02;18.50;99.90
8408;DHT22;4241;48.452;9.216;2022-07-22T06:19:28;18.60;99.90
8408;DHT22;4241;48.452;9.216;2022-07-22T06:21:55;18.80;99.90
8408;DHT22;4241;48.452;9.216;2022-07-22T06:24:22;18.90;99.90
8408;DHT22;4241;48.452;9.216;2022-07-22T06:26:49;19.00;99.90
8408;DHT22;4241;48.452;9.216;2022-07-22T06:29:18;19.10;99.90
8408;DHT22;4241;48.452;9.216;2022-07-22T06:31:44;19.40;99.90
8408;DHT22;4241;48.452;9.216;2022-07-22T06:34:11;19.50;99.90
8408;DHT22;4241;48.452;9.216;2022-07-22T06:36:38;19.70;99.90
8408;DHT22;4241;48.452;9.216;2022-07-22T06:39:05;19.80;99.90
8408;DHT22;4241;48.452;9.216;2022-07-22T06:41:32;19.70;99.90
8408;DHT22;4241;48.452;9.216;2022-07-22T06:43:59;19.80;99.90
8408;DHT22;4241;48.452;9.216;2022-07-22T06:46:27;19.90;99.90
8408;DHT22;4241;48.452;9.216;2022-07-22T06:48:54;20.00;99.90
8408;DHT22;4241;48.452;9.216;2022-07-22T06:51:20;20.30;99.90
8408;DHT22;4241;48.452;9.216;2022-07-22T06:53:47;20.40;99.90
8408;DHT22;4241;48.452;9.216;2022-07-22T06:56:14;20.50;99.90
8408;DHT22;4241;48.452;9.216;2022-07-22T06:58:41;20.60;99.90
8408;DHT22;4241;48.452;9.216;2022-07-22T07:01:08;20.80;99.90
8408;DHT22;4241;48.452;9.216;2022-07-22T07:03:36;20.80;99.90
8408;DHT22;4241;48.452;9.216;2022-07-22T07:06:03;20.90;99.90
8408;DHT22;4241;48.452;9.216;2022-07-22T07:08:30;21.10;99.90
8408;DHT22;4241;48.452;9.216;2022-07-22T07:10:57;21.30;99.90
8408;DHT22;4241;48.452;9.216;2022-07-22T07:13:24;21.20;99.90
8408;DHT22;4241;48.452;9.216;2022-07-22T07:15:51;21.30;99.90
8408;DHT22;4241;48.452;9.216;2022-07-22T07:18:18;21.60;99.90
8408;DHT22;4241;48.452;9.216;2022-07-22T07:20:46;21.60;99.90
8408;DHT22;4241;48.452;9.216;2022-07-22T07:23:14;21.90;99.90
8408;DHT22;4241;48.452;9.216;2022-07-22T07:25:40;21.80;99.90
8408;DHT22;4241;48.452;9.216;2022-07-22T07:28:07;22.00;99.90
8408;DHT22;4241;48.452;9.216;2022-07-22T07:30:34;21.90;99.90
8408;DHT22;4241;48.452;9.216;2022-07-22T07:33:01;22.20;99.90
8408;DHT22;4241;48.452;9.216;2022-07-22T07:35:29;22.40;99.90
8408;DHT22;4241;48.452;9.216;2022-07-22T07:37:57;22.60;99.90
8408;DHT22;4241;48.452;9.216;2022-07-22T07:40:24;22.80;99.90
8408;DHT22;4241;48.452;9.216;2022-07-22T07:42:51;22.80;99.90
8408;DHT22;4241;48.452;9.216;2022-07-22T07:45:18;22.80;99.90
8408;DHT22;4241;48.452;9.216;2022-07-22T07:47:45;22.80;99.90
8408;DHT22;4241;48.452;9.216;2022-07-22T07:50:12;22.90;99.90
8408;DHT22;4241;48.452;9.216;2022-07-22T07:52:39;23.00;99.90
8408;DHT22;4241;48.452;9.216;2022-07-22T07:55:08;23.20;99.90
8408;DHT22;4241;48.452;9.216;2022-07-22T07:57:36;23.20;99.90
8408;DHT22;4241;48.452;9.216;2022-07-22T08:00:05;23.00;99.90
8408;DHT22;4241;48.452;9.216;2022-07-22T08:02:33;23.30;99.90
8408;DHT22;4241;48.452;9.216;2022-07-22T08:05:00;23.80;99.90
8408;DHT22;4241;48.452;9.216;2022-07-22T08:07:28;23.90;99.90
8408;DHT22;4241;48.452;9.216;2022-07-22T08:09:55;24.30;99.90
8408;DHT22;4241;48.452;9.216;2022-07-22T08:12:23;24.30;99.90
8408;DHT22;4241;48.452;9.216;2022-07-22T08:14:50;24.60;99.90
8408;DHT22;4241;48.452;9.216;2022-07-22T08:17:17;24.70;99.90
8408;DHT22;4241;48.452;9.216;2022-07-22T08:19:44;24.80;99.90
8408;DHT22;4241;48.452;9.216;2022-07-22T08:22:11;25.00;99.90
8408;DHT22;4241;48.452;9.216;2022-07-22T08:24:37;25.00;99.90
8408;DHT22;4241;48.452;9.216;2022-07-22T08:27:04;25.10;99.90
8408;DHT22;4241;48.452;9.216;2022-07-22T08:29:32;25.30;99.90
8408;DHT22;4241;48.452;9.216;2022-07-22T08:32:00;25.50;99.90
8408;DHT22;4241;48.452;9.216;2022-07-22T08:34:27;25.60;99.90
8408;DHT22;4241;48.452;9.216;2022-07-22T08:36:54;26.00;99.90
8408;DHT22;4241;48.452;9.216;2022-07-22T08:39:21;26.10;99.90
8408;DHT22;4241;48.452;9.216;2022-07-22T08:41:48;26.00;99.90
8408;DHT22;4241;48.452;9.216;2022-07-22T08:44:16;25.70;99.90
8408;DHT22;4241;48.452;9.216;2022-07-22T08:46:45;25.70;99.90
8408;DHT22;4241;48.452;9.216;2022-07-22T08:49:13;26.10;99.90
8408;DHT22;4241;48.452;9.216;2022-07-22T08:51:40;26.40;99.90
8408;DHT22;4241;48.452;9.216;2022-07-22T08:54:07;26.80;99.90
8408;DHT22;4241;48.452;9.216;2022-07-22T08:56:34;26.50;99.90
8408;DHT22;4241;48.452;9.216;2022-07-22T08:59:03;26.50;99.90
8408;DHT22;4241;48.452;9.216;2022-07-22T09:01:30;26.70;99.90
8408;DHT22;4241;48.452;9.216;2022-07-22T09:03:59;27.10;99.90
8408;DHT22;4241;48.452;9.216;2022-07-22T09:06:27;26.80;99.90
8408;DHT22;4241;48.452;9.216;2022-07-22T09:09:00;27.10;99.90
8408;DHT22;4241;48.452;9.216;2022-07-22T09:11:29;27.00;99.90
8408;DHT22;4241;48.452;9.216;2022-07-22T09:13:57;28.10;99.90
8408;DHT22;4241;48.452;9.216;2022-07-22T09:16:41;27.80;99.90
8408;DHT22;4241;48.452;9.216;2022-07-22T09:19:11;27.70;99.90
8408;DHT22;4241;48.452;9.216;2022-07-22T09:21:39;27.80;99.90
8408;DHT22;4241;48.452;9.216;2022-07-22T09:24:07;27.70;99.90
8408;DHT22;4241;48.452;9.216;2022-07-22T09:26:35;27.70;99.90
8408;DHT22;4241;48.452;9.216;2022-07-22T09:29:04;27.90;99.90
8408;DHT22;4241;48.452;9.216;2022-07-22T09:31:33;28.10;99.90
8408;DHT22;4241;48.452;9.216;2022-07-22T09:34:00;28.30;99.90
8408;DHT22;4241;48.452;9.216;2022-07-22T09:36:28;28.30;99.90
8408;DHT22;4241;48.452;9.216;2022-07-22T09:38:56;28.10;99.90
8408;DHT22;4241;48.452;9.216;2022-07-22T09:41:23;28.50;99.90
8408;DHT22;4241;48.452;9.216;2022-07-22T09:43:50;28.80;99.90
8408;DHT22;4241;48.452;9.216;2022-07-22T09:46:17;28.80;99.90
8408;DHT22;4241;48.452;9.216;2022-07-22T09:48:59;28.90;99.90
8408;DHT22;4241;48.452;9.216;2022-07-22T09:51:26;29.00;99.90
8408;DHT22;4241;48.452;9.216;2022-07-22T09:53:54;28.40;99.90
8408;DHT22;4241;48.452;9.216;2022-07-22T09:56:23;28.50;99.90
8408;DHT22;4241;48.452;9.216;2022-07-22T09:58:50;29.00;99.90
8408;DHT22;4241;48.452;9.216;2022-07-22T10:01:18;29.00;99.90
8408;DHT22;4241;48.452;9.216;2022-07-22T10:03:48;29.10;99.90
8408;DHT22;4241;48.452;9.216;2022-07-22T10:06:18;29.30;99.90
8408;DHT22;4241;48.452;9.216;2022-07-22T10:08:45;29.40;99.90
8408;DHT22;4241;48.452;9.216;2022-07-22T10:11:13;29.40;99.90
8408;DHT22;4241;48.452;9.216;2022-07-22T10:13:40;29.60;99.90
8408;DHT22;4241;48.452;9.216;2022-07-22T10:16:08;29.50;99.90
8408;DHT22;4241;48.452;9.216;2022-07-22T10:18:35;29.50;99.90
8408;DHT22;4241;48.452;9.216;2022-07-22T10:21:04;29.60;99.90
8408;DHT22;4241;48.452;9.216;2022-07-22T10:23:31;30.00;99.90
8408;DHT22;4241;48.452;9.216;2022-07-22T10:25:59;29.70;99.90
8408;DHT22;4241;48.452;9.216;2022-07-22T10:28:29;29.40;99.90
8408;DHT22;4241;48.452;9.216;2022-07-22T10:31:17;29.20;99.90
8408;DHT22;4241;48.452;9.216;2022-07-22T10:33:45;29.80;99.90
8408;DHT22;4241;48.452;9.216;2022-07-22T10:36:14;30.10;99.90
8408;DHT22;4241;48.452;9.216;2022-07-22T10:39:03;30.10;99.90
8408;DHT22;4241;48.452;9.216;2022-07-22T10:41:34;30.10;99.90
8408;DHT22;4241;48.452;9.216;2022-07-22T10:44:03;30.30;99.90
8408;DHT22;4241;48.452;9.216;2022-07-22T10:46:48;30.20;99.90
8408;DHT22;4241;48.452;9.216;2022-07-22T10:49:17;30.60;99.90
8408;DHT22;4241;48.452;9.216;2022-07-22T10:52:09;30.60;99.90
8408;DHT22;4241;48.452;9.216;2022-07-22T10:57:39;30.90;99.90
8408;DHT22;4241;48.452;9.216;2022-07-22T11:00:08;30.50;99.90
8408;DHT22;4241;48.452;9.216;2022-07-22T11:02:37;30.40;96.30
8408;DHT22;4241;48.452;9.216;2022-07-22T11:05:05;30.40;96.50
8408;DHT22;4241;48.452;9.216;2022-07-22T11:07:33;30.70;98.30
8408;DHT22;4241;48.452;9.216;2022-07-22T11:10:09;30.60;99.90
8408;DHT22;4241;48.452;9.216;2022-07-22T11:12:36;30.80;99.90
8408;DHT22;4241;48.452;9.216;2022-07-22T11:15:04;31.10;99.90
8408;DHT22;4241;48.452;9.216;2022-07-22T11:17:33;31.30;98.50
8408;DHT22;4241;48.452;9.216;2022-07-22T11:20:02;31.00;91.80
8408;DHT22;4241;48.452;9.216;2022-07-22T11:22:29;31.30;93.40
8408;DHT22;4241;48.452;9.216;2022-07-22T11:24:57;31.50;94.50
8408;DHT22;4241;48.452;9.216;2022-07-22T11:27:25;31.70;96.40
8408;DHT22;4241;48.452;9.216;2022-07-22T11:29:53;31.60;95.90
8408;DHT22;4241;48.452;9.216;2022-07-22T11:32:21;31.80;92.90
8408;DHT22;4241;48.452;9.216;2022-07-22T11:34:50;31.30;92.30
8408;DHT22;4241;48.452;9.216;2022-07-22T11:37:19;31.90;95.30
8408;DHT22;4241;48.452;9.216;2022-07-22T11:39:48;32.00;93.20
8408;DHT22;4241;48.452;9.216;2022-07-22T11:42:16;32.00;87.20
8408;DHT22;4241;48.452;9.216;2022-07-22T11:44:43;31.80;81.70
8408;DHT22;4241;48.452;9.216;2022-07-22T11:47:10;31.90;79.40
8408;DHT22;4241;48.452;9.216;2022-07-22T11:49:38;31.90;74.90
8408;DHT22;4241;48.452;9.216;2022-07-22T11:52:08;31.90;83.00
8408;DHT22;4241;48.452;9.216;2022-07-22T11:54:37;31.70;86.50
8408;DHT22;4241;48.452;9.216;2022-07-22T11:57:05;32.20;92.10
8408;DHT22;4241;48.452;9.216;2022-07-22T11:59:33;32.10;83.70
8408;DHT22;4241;48.452;9.216;2022-07-22T12:02:01;31.70;90.00
8408;DHT22;4241;48.452;9.216;2022-07-22T12:04:29;31.90;74.20
8408;DHT22;4241;48.452;9.216;2022-07-22T12:06:58;31.30;82.90
8408;DHT22;4241;48.452;9.216;2022-07-22T12:09:30;31.90;79.30
8408;DHT22;4241;48.452;9.216;2022-07-22T12:11:57;31.90;90.40
8408;DHT22;4241;48.452;9.216;2022-07-22T12:14:26;32.00;89.20
8408;DHT22;4241;48.452;9.216;2022-07-22T12:16:55;32.30;90.00
8408;DHT22;4241;48.452;9.216;2022-07-22T12:19:22;32.40;89.60
8408;DHT22;4241;48.452;9.216;2022-07-22T12:21:52;33.00;82.90
8408;DHT22;4241;48.452;9.216;2022-07-22T12:24:25;33.30;76.20
8408;DHT22;4241;48.452;9.216;2022-07-22T12:26:56;32.80;81.40
8408;DHT22;4241;48.452;9.216;2022-07-22T12:29:25;32.70;84.90
8408;DHT22;4241;48.452;9.216;2022-07-22T12:31:53;32.50;85.10
8408;DHT22;4241;48.452;9.216;2022-07-22T12:34:32;32.70;78.20
8408;DHT22;4241;48.452;9.216;2022-07-22T12:36:59;32.90;68.90
8408;DHT22;4241;48.452;9.216;2022-07-22T12:39:28;32.90;69.10
8408;DHT22;4241;48.452;9.216;2022-07-22T12:41:56;33.40;72.60
8408;DHT22;4241;48.452;9.216;2022-07-22T12:44:25;33.20;72.40
8408;DHT22;4241;48.452;9.216;2022-07-22T12:46:53;33.30;79.40
8408;DHT22;4241;48.452;9.216;2022-07-22T12:49:22;32.90;71.10
8408;DHT22;4241;48.452;9.216;2022-07-22T12:52:08;33.40;69.50
8408;DHT22;4241;48.452;9.216;2022-07-22T12:54:36;32.90;68.60
8408;DHT22;4241;48.452;9.216;2022-07-22T12:57:05;33.30;66.90
8408;DHT22;4241;48.452;9.216;2022-07-22T12:59:32;33.10;62.20
8408;DHT22;4241;48.452;9.216;2022-07-22T13:01:59;33.50;67.40
8408;DHT22;4241;48.452;9.216;2022-07-22T13:04:26;33.30;60.30
8408;DHT22;4241;48.452;9.216;2022-07-22T13:06:53;33.10;62.10
8408;DHT22;4241;48.452;9.216;2022-07-22T13:09:20;33.30;67.40
8408;DHT22;4241;48.452;9.216;2022-07-22T13:11:47;33.30;64.40
8408;DHT22;4241;48.452;9.216;2022-07-22T13:14:15;33.50;63.40
8408;DHT22;4241;48.452;9.216;2022-07-22T13:16:42;33.50;55.50
8408;DHT22;4241;48.452;9.216;2022-07-22T13:19:09;33.00;58.70
8408;DHT22;4241;48.452;9.216;2022-07-22T13:21:36;33.10;57.60
8408;DHT22;4241;48.452;9.216;2022-07-22T13:24:03;33.20;62.20
8408;DHT22;4241;48.452;9.216;2022-07-22T13:26:30;33.60;64.80
8408;DHT22;4241;48.452;9.216;2022-07-22T13:28:57;33.10;60.00
8408;DHT22;4241;48.452;9.216;2022-07-22T13:31:25;33.30;61.10
8408;DHT22;4241;48.452;9.216;2022-07-22T13:33:52;33.50;60.40
8408;DHT22;4241;48.452;9.216;2022-07-22T13:36:19;33.70;61.30
8408;DHT22;4241;48.452;9.216;2022-07-22T13:38:48;33.80;65.40
8408;DHT22;4241;48.452;9.216;2022-07-22T13:41:16;33.50;61.00
8408;DHT22;4241;48.452;9.216;2022-07-22T13:43:44;33.60;64.00
8408;DHT22;4241;48.452;9.216;2022-07-22T13:46:11;33.50;62.40
8408;DHT22;4241;48.452;9.216;2022-07-22T13:48:40;33.40;61.40
8408;DHT22;4241;48.452;9.216;2022-07-22T13:51:07;33.40;61.00
8408;DHT22;4241;48.452;9.216;2022-07-22T13:53:34;33.50;62.50
8408;DHT22;4241;48.452;9.216;2022-07-22T13:56:01;33.50;53.80
8408;DHT22;4241;48.452;9.216;2022-07-22T13:58:28;33.20;59.20
8408;DHT22;4241;48.452;9.216;2022-07-22T14:00:55;33.20;60.00
8408;DHT22;4241;48.452;9.216;2022-07-22T14:03:22;33.10;61.80
8408;DHT22;4241;48.452;9.216;2022-07-22T14:05:50;33.40;58.00
8408;DHT22;4241;48.452;9.216;2022-07-22T14:08:17;33.00;57.00
8408;DHT22;4241;48.452;9.216;2022-07-22T14:10:44;33.00;59.30
8408;DHT22;4241;48.452;9.216;2022-07-22T14:13:11;33.50;60.60
8408;DHT22;4241;48.452;9.216;2022-07-22T14:15:38;33.60;60.20
8408;DHT22;4241;48.452;9.216;2022-07-22T14:18:05;33.30;66.20
8408;DHT22;4241;48.452;9.216;2022-07-22T14:20:33;32.70;66.90
8408;DHT22;4241;48.452;9.216;2022-07-22T14:23:02;32.50;73.40
8408;DHT22;4241;48.452;9.216;2022-07-22T14:25:30;32.80;75.90
8408;DHT22;4241;48.452;9.216;2022-07-22T14:27:57;33.30;77.40
8408;DHT22;4241;48.452;9.216;2022-07-22T14:30:24;33.30;75.10
8408;DHT22;4241;48.452;9.216;2022-07-22T14:32:53;32.90;78.50
8408;DHT22;4241;48.452;9.216;2022-07-22T14:35:20;33.00;75.00
8408;DHT22;4241;48.452;9.216;2022-07-22T14:37:47;33.30;77.20
8408;DHT22;4241;48.452;9.216;2022-07-22T14:40:16;33.00;69.60
8408;DHT22;4241;48.452;9.216;2022-07-22T14:42:43;32.60;73.90
8408;DHT22;4241;48.452;9.216;2022-07-22T14:45:10;33.00;76.30
8408;DHT22;4241;48.452;9.216;2022-07-22T14:47:37;33.10;73.10
8408;DHT22;4241;48.452;9.216;2022-07-22T14:50:05;33.50;78.10
8408;DHT22;4241;48.452;9.216;2022-07-22T14:52:32;33.50;74.30
8408;DHT22;4241;48.452;9.216;2022-07-22T14:54:59;33.50;73.60
8408;DHT22;4241;48.452;9.216;2022-07-22T14:57:27;33.40;68.00
8408;DHT22;4241;48.452;9.216;2022-07-22T14:59:54;33.70;68.00
8408;DHT22;4241;48.452;9.216;2022-07-22T15:02:21;32.90;66.20
8408;DHT22;4241;48.452;9.216;2022-07-22T15:04:47;32.60;64.70
8408;DHT22;4241;48.452;9.216;2022-07-22T15:07:14;32.80;68.50
8408;DHT22;4241;48.452;9.216;2022-07-22T15:09:41;33.00;69.30
8408;DHT22;4241;48.452;9.216;2022-07-22T15:12:08;32.90;66.90
8408;DHT22;4241;48.452;9.216;2022-07-22T15:14:36;33.10;68.30
8408;DHT22;4241;48.452;9.216;2022-07-22T15:17:03;33.40;68.20
8408;DHT22;4241;48.452;9.216;2022-07-22T15:19:30;33.60;67.40
8408;DHT22;4241;48.452;9.216;2022-07-22T15:21:57;33.90;66.70
8408;DHT22;4241;48.452;9.216;2022-07-22T15:24:24;34.20;70.50
8408;DHT22;4241;48.452;9.216;2022-07-22T15:26:51;33.90;67.90
8408;DHT22;4241;48.452;9.216;2022-07-22T15:29:18;34.00;64.50
8408;DHT22;4241;48.452;9.216;2022-07-22T15:31:46;33.80;66.60
8408;DHT22;4241;48.452;9.216;2022-07-22T15:34:13;34.40;65.20
8408;DHT22;4241;48.452;9.216;2022-07-22T15:36:40;34.60;70.30
8408;DHT22;4241;48.452;9.216;2022-07-22T15:39:07;34.70;68.40
8408;DHT22;4241;48.452;9.216;2022-07-22T15:41:35;35.00;61.20
8408;DHT22;4241;48.452;9.216;2022-07-22T15:44:02;34.50;59.10
8408;DHT22;4241;48.452;9.216;2022-07-22T15:46:29;34.20;62.90
8408;DHT22;4241;48.452;9.216;2022-07-22T15:48:57;34.20;67.10
8408;DHT22;4241;48.452;9.216;2022-07-22T15:51:24;34.50;67.20
8408;DHT22;4241;48.452;9.216;2022-07-22T15:53:51;34.60;66.90
8408;DHT22;4241;48.452;9.216;2022-07-22T15:56:18;34.20;67.00
8408;DHT22;4241;48.452;9.216;2022-07-22T15:58:45;33.90;69.30
8408;DHT22;4241;48.452;9.216;2022-07-22T16:01:30;34.30;69.70
8408;DHT22;4241;48.452;9.216;2022-07-22T16:03:58;34.60;67.80
8408;DHT22;4241;48.452;9.216;2022-07-22T16:06:25;34.90;67.80
8408;DHT22;4241;48.452;9.216;2022-07-22T16:08:52;34.50;60.60